Time;durP1;ratioP1;P1;durP2;ratioP2;P2;SDS_P1;SDS_P2;PMS_P1;PMS_P2;Temp;Humidity;BMP_temperature;BMP_pressure;BME280_temperature;BME280_humidity;BME280_pressure;Samples;Min_cycle;Max_cycle;Signal;HPM_P1;HPM_P2
2021/05/29 00:02:17;;;;;;;4.05;2.42;;;;;;;10.40;46.57;102517.47;5005370;28;20034;-68
2021/05/29 00:04:43;;;;;;;6.45;2.88;;;;;;;10.56;46.02;102515.50;4996327;28;20046;-68
2021/05/29 00:07:09;;;;;;;11.27;3.70;;;;;;;10.54;46.09;102513.81;5006452;28;20033;-69
2021/05/29 00:09:36;;;;;;;7.05;2.97;;;;;;;10.47;46.08;102512.16;5004891;28;20124;-68
2021/05/29 00:12:04;;;;;;;6.60;3.17;;;;;;;10.62;45.40;102511.94;5005457;28;20479;-68
2021/05/29 00:14:31;;;;;;;9.63;3.38;;;;;;;10.39;46.39;102513.13;5004479;28;20038;-69
2021/05/29 00:16:56;;;;;;;9.55;3.92;;;;;;;10.42;45.94;102505.25;4985797;28;20594;-68
2021/05/29 00:19:22;;;;;;;5.95;3.47;;;;;;;10.48;46.26;102509.53;4989117;28;20037;-68
2021/05/29 00:21:47;;;;;;;6.88;2.83;;;;;;;10.43;45.83;102498.25;5007580;28;20033;-68
2021/05/29 00:24:13;;;;;;;6.93;2.92;;;;;;;10.45;45.25;102504.34;5006649;28;20029;-67
2021/05/29 00:26:38;;;;;;;7.07;3.00;;;;;;;10.42;45.55;102501.78;5007824;28;20034;-69
2021/05/29 00:29:04;;;;;;;5.72;3.05;;;;;;;10.46;45.43;102495.63;5005911;28;22045;-69
2021/05/29 00:31:30;;;;;;;4.90;2.28;;;;;;;10.35;45.13;102500.97;5022325;28;20080;-68
2021/05/29 00:33:55;;;;;;;8.25;3.08;;;;;;;10.38;45.17;102508.78;5005880;28;20487;-68
2021/05/29 00:36:21;;;;;;;6.88;2.97;;;;;;;10.48;44.71;102512.16;5005087;28;20025;-67
2021/05/29 00:38:49;;;;;;;6.68;3.03;;;;;;;10.14;45.91;102507.34;4988607;28;20033;-68
2021/05/29 00:41:16;;;;;;;8.18;4.03;;;;;;;10.19;45.25;102507.28;4988348;28;20522;-68
2021/05/29 00:43:42;;;;;;;12.38;4.22;;;;;;;10.21;45.27;102503.78;5003692;28;20053;-68
2021/05/29 00:46:09;;;;;;;7.88;3.22;;;;;;;10.15;45.36;102501.25;5005712;28;20276;-68
2021/05/29 00:48:35;;;;;;;12.38;3.55;;;;;;;10.18;45.92;102490.75;5004914;28;20841;-68
2021/05/29 00:51:02;;;;;;;10.27;3.30;;;;;;;10.25;45.99;102494.13;4988907;28;20061;-68
2021/05/29 00:53:30;;;;;;;8.10;3.88;;;;;;;10.33;45.41;102494.91;4987332;28;20091;-68
2021/05/29 00:55:57;;;;;;;7.90;3.42;;;;;;;10.37;45.41;102493.09;5005352;28;20120;-68
2021/05/29 00:58:24;;;;;;;6.65;3.45;;;;;;;10.34;45.96;102496.63;5005592;28;20200;-68
2021/05/29 01:00:50;;;;;;;7.28;3.42;;;;;;;10.25;45.74;102493.28;5004337;28;20056;-68
2021/05/29 01:03:16;;;;;;;7.38;3.65;;;;;;;10.14;46.43;102494.25;5005260;28;20110;-68
2021/05/29 01:05:42;;;;;;;7.93;3.50;;;;;;;10.29;46.47;102497.59;5004937;28;20519;-68
2021/05/29 01:08:08;;;;;;;7.97;3.00;;;;;;;10.16;46.26;102500.34;4979408;28;20030;-68
2021/05/29 01:10:35;;;;;;;5.55;3.08;;;;;;;10.26;46.18;102501.09;5005175;28;20029;-68
2021/05/29 01:13:02;;;;;;;7.38;3.75;;;;;;;10.37;46.00;102499.22;4988112;28;20046;-68
2021/05/29 01:15:35;;;;;;;10.75;3.63;;;;;;;10.47;45.84;102497.34;5002674;28;20046;-68
2021/05/29 01:18:03;;;;;;;5.90;3.30;;;;;;;10.32;46.35;102498.41;5003064;28;20037;-68
2021/05/29 01:20:28;;;;;;;7.07;3.75;;;;;;;10.50;45.55;102491.19;5019341;28;20415;-68
2021/05/29 01:22:56;;;;;;;6.22;2.92;;;;;;;10.53;46.00;102496.41;5005100;28;20088;-68
2021/05/29 01:25:37;;;;;;;6.05;3.50;;;;;;;10.52;45.70;102495.50;5003669;28;20033;-68
2021/05/29 01:28:10;;;;;;;9.25;3.58;;;;;;;10.43;44.84;102495.66;5006089;28;20030;-68
2021/05/29 01:30:49;;;;;;;9.05;3.47;;;;;;;10.27;45.66;102489.75;4987673;28;20042;-68
2021/05/29 01:33:20;;;;;;;8.65;3.55;;;;;;;10.32;45.44;102493.16;5002560;28;20053;-68
2021/05/29 01:35:47;;;;;;;5.75;2.55;;;;;;;10.31;45.71;102496.69;5003854;28;20030;-68
2021/05/29 01:38:14;;;;;;;10.30;4.30;;;;;;;10.27;46.01;102496.75;5005861;28;20030;-68
2021/05/29 01:40:40;;;;;;;14.40;3.17;;;;;;;10.20;45.90;102502.03;5004241;28;20120;-68
2021/05/29 01:43:08;;;;;;;8.50;3.17;;;;;;;10.10;46.03;102496.94;5003946;28;20129;-68
2021/05/29 01:45:36;;;;;;;9.65;2.65;;;;;;;10.20;46.10;102498.56;5005204;28;20029;-68
2021/05/29 01:48:04;;;;;;;12.95;3.13;;;;;;;10.18;45.96;102495.97;5005475;28;20044;-68
2021/05/29 01:50:30;;;;;;;6.07;3.58;;;;;;;10.19;46.37;102507.28;5002992;28;20069;-69
2021/05/29 01:52:58;;;;;;;8.60;2.78;;;;;;;10.17;46.16;102503.84;5006394;28;20037;-69
2021/05/29 01:55:27;;;;;;;5.63;3.38;;;;;;;10.17;45.90;102503.84;4981663;28;20045;-68
2021/05/29 01:57:54;;;;;;;5.90;3.35;;;;;;;10.12;46.56;102506.47;5005828;28;20032;-68
2021/05/29 02:00:22;;;;;;;6.47;3.67;;;;;;;9.98;47.01;102511.00;5002997;28;20100;-68
2021/05/29 02:02:48;;;;;;;7.80;4.05;;;;;;;10.00;46.99;102517.94;5005656;28;20458;-68
2021/05/29 02:05:17;;;;;;;6.97;3.47;;;;;;;10.06;46.60;102510.91;5002493;28;20037;-68
2021/05/29 02:07:43;;;;;;;9.43;3.33;;;;;;;10.06;46.74;102514.41;4986264;28;20512;-68
2021/05/29 02:10:10;;;;;;;7.63;4.57;;;;;;;9.96;46.63;102511.03;5005034;28;20056;-67
2021/05/29 02:12:44;;;;;;;11.63;4.95;;;;;;;9.70;47.69;102519.13;5004452;28;20438;-68
2021/05/29 02:15:14;;;;;;;8.48;4.35;;;;;;;9.97;46.95;102512.78;5002786;28;20480;-68
2021/05/29 02:17:40;;;;;;;10.35;4.22;;;;;;;9.97;47.13;102511.91;5003519;28;20388;-67
2021/05/29 02:20:06;;;;;;;11.00;4.70;;;;;;;9.92;46.55;102519.81;5003239;28;20099;-69
2021/05/29 02:22:33;;;;;;;11.15;4.68;;;;;;;9.93;47.06;102515.44;5004830;28;20030;-68
2021/05/29 02:24:59;;;;;;;9.90;4.80;;;;;;;10.06;46.76;102516.13;5005598;28;20041;-68
2021/05/29 02:27:24;;;;;;;7.97;4.32;;;;;;;10.09;46.65;102516.13;5003019;28;20034;-69
2021/05/29 02:29:50;;;;;;;12.13;5.55;;;;;;;10.06;46.95;102519.63;5004239;28;20037;-68
2021/05/29 02:32:16;;;;;;;10.27;4.40;;;;;;;10.09;47.08;102527.44;5006741;28;20030;-68
2021/05/29 02:34:41;;;;;;;11.02;4.68;;;;;;;9.91;47.07;102520.66;5001598;28;20057;-68
2021/05/29 02:37:07;;;;;;;7.15;3.33;;;;;;;9.90;47.17;102518.94;5004163;28;20116;-68
2021/05/29 02:39:32;;;;;;;5.60;2.28;;;;;;;9.94;46.45;102511.94;5003797;28;20435;-68
2021/05/29 02:41:58;;;;;;;4.60;2.78;;;;;;;10.04;46.05;102513.56;5003130;28;20040;-68
2021/05/29 02:44:25;;;;;;;8.05;3.03;;;;;;;10.13;45.87;102518.69;5004050;28;20045;-68
2021/05/29 02:46:51;;;;;;;5.82;3.35;;;;;;;10.13;46.26;102518.69;5002991;28;20041;-68
2021/05/29 02:49:16;;;;;;;5.60;2.90;;;;;;;10.21;45.56;102527.31;5001601;28;20392;-69
2021/05/29 02:51:42;;;;;;;7.78;3.22;;;;;;;10.22;45.67;102523.78;5002728;28;20034;-68
2021/05/29 02:54:08;;;;;;;7.82;3.05;;;;;;;10.25;45.77;102529.88;4986021;28;20112;-68
2021/05/29 02:56:33;;;;;;;4.05;2.50;;;;;;;10.18;45.90;102516.88;4985070;28;20060;-68
2021/05/29 02:58:59;;;;;;;7.00;2.80;;;;;;;10.20;45.80;102527.31;5006446;28;20820;-68
2021/05/29 03:01:24;;;;;;;7.15;3.00;;;;;;;10.12;45.43;102521.31;5004822;28;20053;-68
2021/05/29 03:03:50;;;;;;;7.25;3.30;;;;;;;10.02;46.00;102528.38;5001902;28;20057;-68
2021/05/29 03:06:16;;;;;;;6.25;3.55;;;;;;;9.62;46.42;102534.00;5003295;28;20026;-68
2021/05/29 03:08:41;;;;;;;7.78;2.97;;;;;;;9.86;45.85;102524.22;5004585;28;20030;-68
2021/05/29 03:11:08;;;;;;;9.13;3.25;;;;;;;9.73;47.01;102536.50;5003140;28;20446;-68
2021/05/29 03:13:34;;;;;;;3.90;2.47;;;;;;;9.69;46.35;102537.41;4991037;28;20858;-68
2021/05/29 03:15:59;;;;;;;5.00;2.55;;;;;;;9.73;46.05;102539.97;5002857;28;20521;-68
2021/05/29 03:18:25;;;;;;;6.93;2.08;;;;;;;9.75;45.95;102539.97;5004645;28;20034;-68
2021/05/29 03:20:50;;;;;;;4.60;1.98;;;;;;;9.69;46.15;102545.25;5002996;28;20061;-68
2021/05/29 03:23:16;;;;;;;7.72;1.92;;;;;;;9.73;46.12;102545.19;5004992;28;20403;-68
2021/05/29 03:25:42;;;;;;;2.30;1.30;;;;;;;9.72;45.71;102551.31;5003096;28;20037;-68
2021/05/29 03:28:08;;;;;;;3.47;2.08;;;;;;;9.61;45.92;102547.94;5006429;28;20038;-69
2021/05/29 03:30:34;;;;;;;3.65;1.85;;;;;;;9.66;45.69;102553.13;5005854;28;20069;-68
2021/05/29 03:33:00;;;;;;;4.18;2.47;;;;;;;9.63;46.68;102548.75;5006642;28;20061;-68
2021/05/29 03:35:26;;;;;;;4.85;2.22;;;;;;;9.67;46.14;102560.06;5008245;28;20049;-68
2021/05/29 03:37:51;;;;;;;6.68;2.53;;;;;;;9.56;46.37;102554.91;4991101;28;20611;-69
2021/05/29 03:40:17;;;;;;;5.43;2.03;;;;;;;9.43;47.01;102555.91;5006183;28;20045;-69
2021/05/29 03:42:44;;;;;;;6.30;2.22;;;;;;;9.75;46.19;102555.63;4989378;28;20034;-69
2021/05/29 03:45:12;;;;;;;6.80;2.45;;;;;;;9.62;46.72;102554.03;5010457;28;20033;-68
2021/05/29 03:47:39;;;;;;;7.00;1.98;;;;;;;9.31;47.14;102555.13;4989915;28;20049;-69
2021/05/29 03:50:06;;;;;;;5.15;2.17;;;;;;;9.63;45.74;102556.59;5006598;28;20088;-68
2021/05/29 03:52:32;;;;;;;5.70;1.63;;;;;;;9.78;45.30;102559.06;4989011;28;20037;-69
2021/05/29 03:54:57;;;;;;;6.18;2.20;;;;;;;9.81;45.42;102563.41;5007716;28;20029;-68
2021/05/29 03:57:23;;;;;;;4.10;1.95;;;;;;;9.59;46.01;102567.97;5006454;28;20740;-68
2021/05/29 03:59:48;;;;;;;3.47;1.85;;;;;;;9.66;46.09;102568.78;5022331;28;20036;-70
2021/05/29 04:02:14;;;;;;;4.93;2.10;;;;;;;9.65;45.86;102567.88;5005685;28;20121;-68
2021/05/29 04:04:39;;;;;;;4.68;2.30;;;;;;;9.57;46.00;102556.66;5005429;28;20033;-69
2021/05/29 04:07:05;;;;;;;3.40;1.73;;;;;;;9.84;45.92;102562.56;5005630;28;20034;-68
2021/05/29 04:09:31;;;;;;;5.78;2.20;;;;;;;9.79;45.71;102560.84;5006266;28;20068;-68
2021/05/29 04:11:57;;;;;;;4.88;2.22;;;;;;;9.56;47.09;102558.41;5006677;28;20045;-68
2021/05/29 04:14:22;;;;;;;5.32;2.25;;;;;;;9.75;46.44;102564.31;5007184;28;20029;-68
2021/05/29 04:16:48;;;;;;;4.82;1.75;;;;;;;9.31;46.80;102565.56;5008632;28;20140;-69
2021/05/29 04:19:13;;;;;;;6.53;2.05;;;;;;;9.45;46.24;102567.19;5006561;28;20067;-68
2021/05/29 04:21:39;;;;;;;4.32;2.28;;;;;;;9.52;46.85;102561.03;5008091;28;20034;-68
2021/05/29 04:24:05;;;;;;;11.30;2.63;;;;;;;9.80;45.83;102564.31;5010030;28;20104;-67
2021/05/29 04:26:30;;;;;;;7.20;2.83;;;;;;;9.83;46.22;102568.63;5004836;28;20385;-70
2021/05/29 04:28:56;;;;;;;8.73;1.92;;;;;;;9.80;45.85;102554.72;5021600;28;20672;-68
2021/05/29 04:31:21;;;;;;;4.00;1.90;;;;;;;9.78;45.03;102569.50;5007219;28;20045;-69
2021/05/29 04:33:47;;;;;;;4.15;1.80;;;;;;;9.93;45.80;102567.66;4997198;28;20091;-68
2021/05/29 04:36:13;;;;;;;2.85;1.20;;;;;;;9.78;44.96;102568.66;4989640;28;20032;-68
2021/05/29 04:38:38;;;;;;;5.65;1.48;;;;;;;9.80;44.44;102575.63;5003691;28;20049;-69
2021/05/29 04:41:04;;;;;;;2.17;1.10;;;;;;;9.83;44.47;102576.47;4989153;28;20145;-68
2021/05/29 04:43:30;;;;;;;1.98;1.45;;;;;;;9.80;45.27;102578.22;4987035;28;20193;-68
2021/05/29 04:45:55;;;;;;;4.20;1.33;;;;;;;10.13;44.43;102567.47;5006798;28;20048;-68
2021/05/29 04:48:21;;;;;;;5.85;2.05;;;;;;;10.24;44.38;102573.44;5006487;28;20045;-68
2021/05/29 04:53:30;;;;;;;3.90;2.00;;;;;;;10.01;44.47;102581.50;5004395;28;20045;-68
2021/05/29 04:55:59;;;;;;;5.85;1.75;;;;;;;10.10;44.72;102581.44;5006612;28;20026;-68
2021/05/29 04:58:25;;;;;;;2.60;1.80;;;;;;;10.32;44.57;102581.16;4995230;28;20034;-68
2021/05/29 05:00:52;;;;;;;3.40;2.20;;;;;;;10.39;44.58;102575.88;4995533;28;20048;-68
2021/05/29 05:03:17;;;;;;;3.95;2.28;;;;;;;10.18;44.85;102578.72;5002782;28;20034;-68
2021/05/29 05:05:43;;;;;;;4.93;2.00;;;;;;;10.13;44.75;102573.53;5004179;28;20026;-68
2021/05/29 05:08:08;;;;;;;5.40;1.63;;;;;;;10.28;44.43;102584.69;5005578;28;20343;-68
2021/05/29 05:10:34;;;;;;;3.53;1.10;;;;;;;10.33;44.08;102573.31;4989242;28;20095;-68
2021/05/29 05:12:59;;;;;;;4.32;1.70;;;;;;;10.32;44.10;102581.16;5006723;28;20108;-68
2021/05/29 05:15:25;;;;;;;5.35;1.13;;;;;;;10.17;43.90;102575.25;5004464;28;20061;-68
2021/05/29 05:17:51;;;;;;;5.63;1.60;;;;;;;10.04;44.43;102581.50;5020516;28;20034;-68
2021/05/29 05:20:17;;;;;;;4.63;1.60;;;;;;;10.07;44.83;102578.84;5006823;28;20438;-68
2021/05/29 05:22:44;;;;;;;4.05;1.85;;;;;;;10.21;44.33;102576.94;5004407;28;20452;-68
2021/05/29 05:25:10;;;;;;;3.03;1.55;;;;;;;10.28;44.81;102574.25;5004506;28;20099;-68
2021/05/29 05:27:36;;;;;;;2.80;1.40;;;;;;;10.53;43.22;102570.47;5019571;28;20045;-69
2021/05/29 05:30:05;;;;;;;3.67;1.48;;;;;;;10.37;44.25;102575.03;5004393;28;20057;-68
2021/05/29 05:32:30;;;;;;;3.28;1.45;;;;;;;10.11;44.30;102564.00;5005378;28;20033;-68
2021/05/29 05:34:56;;;;;;;1.77;1.15;;;;;;;10.11;44.49;102566.63;5004243;28;20038;-68
2021/05/29 05:37:21;;;;;;;3.53;1.42;;;;;;;10.32;43.85;102568.09;5005999;28;20117;-68
2021/05/29 05:39:47;;;;;;;4.20;1.50;;;;;;;10.16;44.44;102562.19;5004091;28;20038;-67
2021/05/29 05:42:13;;;;;;;4.05;1.33;;;;;;;10.18;44.93;102566.50;5004413;28;20046;-69
2021/05/29 05:44:38;;;;;;;3.72;1.58;;;;;;;10.30;44.71;102575.09;5004430;28;20042;-70
2021/05/29 05:47:04;;;;;;;6.25;2.28;;;;;;;10.48;44.66;102574.91;5002067;28;20045;-68
2021/05/29 05:49:29;;;;;;;5.82;1.90;;;;;;;10.66;44.03;102578.13;5003070;28;20037;-68
2021/05/29 05:51:55;;;;;;;3.25;1.42;;;;;;;10.67;44.51;102577.25;5005969;28;20030;-69
2021/05/29 05:54:20;;;;;;;4.07;1.95;;;;;;;10.59;44.05;102574.72;5004553;28;20099;-68
2021/05/29 05:56:46;;;;;;;3.00;1.30;;;;;;;10.62;43.42;102580.78;5006718;28;20631;-68
2021/05/29 05:59:11;;;;;;;3.03;1.08;;;;;;;11.00;42.95;102587.28;5003839;28;20061;-68
2021/05/29 06:01:38;;;;;;;3.10;1.40;;;;;;;10.78;42.88;102577.97;5004314;28;20124;-68
2021/05/29 06:04:04;;;;;;;3.38;1.25;;;;;;;10.31;44.02;102579.44;5002306;28;20041;-68
2021/05/29 06:06:30;;;;;;;5.65;1.50;;;;;;;10.53;44.23;102588.75;5005461;28;20041;-68
2021/05/29 06:08:56;;;;;;;4.68;1.33;;;;;;;10.33;43.74;102582.91;5004015;28;20037;-68
2021/05/29 06:11:22;;;;;;;4.95;1.05;;;;;;;10.37;43.87;102584.59;5004157;28;20040;-68
2021/05/29 06:21:46;;;;;;;6.43;1.70;;;;;;;10.89;42.54;102594.41;5001167;28;20041;-68
2021/05/29 06:24:24;;;;;;;2.67;1.50;;;;;;;10.77;42.91;102597.16;5003027;28;20040;-69
2021/05/29 06:26:50;;;;;;;3.45;1.40;;;;;;;10.75;43.60;102599.81;5019517;28;20500;-67
2021/05/29 06:29:17;;;;;;;6.32;1.80;;;;;;;10.67;44.15;102604.28;5002436;28;20044;-68
2021/05/29 06:31:44;;;;;;;4.55;1.67;;;;;;;10.64;43.50;102607.78;5017998;28;20058;-67
2021/05/29 06:34:09;;;;;;;4.68;1.75;;;;;;;10.87;43.68;102614.50;5000855;28;20054;-67
2021/05/29 06:36:35;;;;;;;2.58;1.48;;;;;;;10.53;44.05;102616.66;4987034;28;20139;-68
2021/05/29 06:39:01;;;;;;;2.42;1.30;;;;;;;10.40;43.85;102618.53;5003482;28;20026;-67
2021/05/29 06:41:26;;;;;;;4.47;1.60;;;;;;;10.85;43.37;102621.50;5001976;28;20530;-69
2021/05/29 06:43:52;;;;;;;6.22;1.45;;;;;;;11.00;42.38;102623.91;5019424;28;20061;-68
2021/05/29 06:46:18;;;;;;;1.52;1.15;;;;;;;11.02;42.30;102627.38;5004967;28;20120;-68
2021/05/29 06:48:44;;;;;;;3.10;1.15;;;;;;;10.87;42.54;102639.81;5002472;28;20044;-69
2021/05/29 06:51:14;;;;;;;5.47;1.60;;;;;;;10.98;42.04;102635.28;5003492;28;20476;-67
2021/05/29 06:53:44;;;;;;;5.03;1.40;;;;;;;10.86;43.14;102631.09;5002180;28;20042;-68
2021/05/29 06:58:53;;;;;;;6.55;1.80;;;;;;;10.55;43.25;102625.34;4994424;28;20041;-69
2021/05/29 07:01:22;;;;;;;4.28;1.17;;;;;;;10.80;42.97;102633.75;5004700;28;20060;-69
2021/05/29 07:03:48;;;;;;;5.95;2.10;;;;;;;10.54;43.00;102634.91;5007258;28;20488;-67
2021/05/29 07:06:15;;;;;;;4.63;1.48;;;;;;;10.75;42.58;102639.03;5007528;28;20030;-67
2021/05/29 07:08:40;;;;;;;4.38;1.83;;;;;;;11.04;42.30;102646.53;5007834;28;20056;-68
2021/05/29 07:11:06;;;;;;;2.22;1.10;;;;;;;11.18;41.56;102642.88;5007601;28;20037;-68
2021/05/29 07:13:32;;;;;;;5.88;2.05;;;;;;;11.45;41.89;102647.69;5007366;28;20129;-68
2021/05/29 07:15:58;;;;;;;4.55;1.27;;;;;;;11.63;41.24;102645.66;5003371;28;20051;-68
2021/05/29 07:18:28;;;;;;;2.10;1.27;;;;;;;11.98;40.59;102652.09;5007323;28;20487;-68
2021/05/29 07:20:54;;;;;;;2.67;1.35;;;;;;;11.60;40.72;102648.34;5006773;28;20033;-68
2021/05/29 07:23:19;;;;;;;4.88;1.30;;;;;;;10.94;41.95;102649.28;5006573;28;20042;-68
2021/05/29 07:25:45;;;;;;;2.92;1.30;;;;;;;11.30;41.47;102647.91;5005701;28;20037;-68
2021/05/29 07:28:10;;;;;;;3.10;1.33;;;;;;;11.51;40.83;102651.06;5005788;28;20037;-68
2021/05/29 07:30:36;;;;;;;5.40;0.88;;;;;;;11.18;41.20;102648.97;5007016;28;20030;-68
2021/05/29 07:33:03;;;;;;;4.85;1.35;;;;;;;11.15;41.49;102653.34;5006534;28;20061;-68
2021/05/29 07:35:29;;;;;;;5.72;1.30;;;;;;;11.46;40.53;102665.13;5011858;28;20037;-67
2021/05/29 07:37:54;;;;;;;4.32;1.23;;;;;;;11.42;40.55;102660.81;5023037;28;20038;-67
2021/05/29 07:40:20;;;;;;;2.97;1.02;;;;;;;11.20;41.38;102672.50;5005844;28;20034;-67
2021/05/29 07:42:45;;;;;;;2.00;0.95;;;;;;;11.70;40.63;102662.13;5006192;28;20036;-67
2021/05/29 07:45:12;;;;;;;3.03;0.93;;;;;;;11.15;41.72;102669.06;5006558;28;20119;-67
2021/05/29 07:47:38;;;;;;;3.28;1.10;;;;;;;11.45;41.60;102673.00;5006316;28;20144;-68
2021/05/29 07:50:06;;;;;;;5.40;1.50;;;;;;;10.88;42.26;102670.28;4988407;28;20741;-67
2021/05/29 07:52:31;;;;;;;4.05;1.50;;;;;;;11.63;40.40;102672.72;5007298;28;20026;-68
2021/05/29 07:54:57;;;;;;;1.63;0.93;;;;;;;11.74;40.81;102683.03;5006465;28;20144;-68
2021/05/29 07:57:22;;;;;;;2.67;1.55;;;;;;;11.72;40.08;102676.06;5006202;28;20038;-68
2021/05/29 07:59:48;;;;;;;2.58;1.35;;;;;;;11.66;41.31;102682.25;5004527;28;20041;-68
2021/05/29 08:02:13;;;;;;;4.55;1.50;;;;;;;12.10;40.00;102678.06;5004628;28;20599;-67
2021/05/29 08:04:40;;;;;;;3.40;1.30;;;;;;;12.59;39.31;102681.53;5005173;28;20119;-68
2021/05/29 08:07:06;;;;;;;2.47;1.23;;;;;;;12.47;39.19;102672.16;5005267;28;20076;-68
2021/05/29 08:09:32;;;;;;;3.05;1.20;;;;;;;12.10;39.46;102685.94;5003671;28;20026;-68
2021/05/29 08:11:57;;;;;;;3.65;1.27;;;;;;;12.13;39.76;102683.25;5010069;28;20100;-68
2021/05/29 08:14:23;;;;;;;2.22;1.50;;;;;;;11.98;40.25;102688.78;5003141;28;20115;-69
2021/05/29 08:16:48;;;;;;;5.15;1.83;;;;;;;11.56;41.08;102691.16;4987894;28;20065;-68
2021/05/29 08:19:14;;;;;;;2.20;1.10;;;;;;;11.61;40.90;102694.56;5005302;28;20038;-68
2021/05/29 08:21:46;;;;;;;5.90;1.65;;;;;;;11.57;41.09;102698.13;4987870;28;20409;-68
2021/05/29 08:24:11;;;;;;;3.13;1.60;;;;;;;11.68;40.82;102697.06;5004547;28;20048;-68
2021/05/29 08:26:38;;;;;;;4.05;1.67;;;;;;;11.61;40.69;102700.66;5004854;28;20050;-68
2021/05/29 08:29:06;;;;;;;2.70;1.38;;;;;;;11.35;41.63;102701.09;5004742;28;20135;-68
2021/05/29 08:31:31;;;;;;;2.95;1.33;;;;;;;11.83;41.23;102706.47;5003668;28;20624;-68
2021/05/29 08:33:57;;;;;;;2.22;1.48;;;;;;;11.49;41.10;102710.50;5007853;28;20109;-68
2021/05/29 08:36:23;;;;;;;2.67;1.42;;;;;;;11.75;40.53;102703.06;5006213;28;20129;-68
2021/05/29 08:38:48;;;;;;;3.95;2.22;;;;;;;11.79;40.90;102714.41;5006774;28;20026;-68
2021/05/29 08:41:15;;;;;;;3.03;1.75;;;;;;;11.82;40.81;102717.88;5002825;28;20037;-68
2021/05/29 08:43:41;;;;;;;8.23;2.15;;;;;;;11.83;40.58;102711.72;5003973;28;20583;-68
2021/05/29 08:46:07;;;;;;;4.53;1.67;;;;;;;11.95;40.18;102715.88;5000752;28;20116;-69
2021/05/29 08:48:33;;;;;;;2.03;1.23;;;;;;;12.11;41.18;102721.75;4985779;28;20037;-68
2021/05/29 08:51:14;;;;;;;6.75;2.10;;;;;;;11.78;41.02;102720.56;5002330;28;20619;-68
2021/05/29 08:53:48;;;;;;;4.32;1.65;;;;;;;11.82;40.87;102720.47;4988224;28;20210;-68
2021/05/29 08:56:15;;;;;;;2.50;1.35;;;;;;;11.32;42.22;102724.66;5003322;28;20050;-68
2021/05/29 08:58:41;;;;;;;3.15;1.10;;;;;;;11.02;42.24;102726.81;5001141;28;20046;-69
2021/05/29 09:01:07;;;;;;;3.38;1.50;;;;;;;11.32;41.29;102737.75;5003013;28;20033;-69
2021/05/29 09:03:43;;;;;;;4.20;1.15;;;;;;;11.40;42.10;102730.66;4984959;28;20087;-68
2021/05/29 09:06:09;;;;;;;1.70;0.98;;;;;;;11.76;40.44;102741.50;4995231;28;20125;-68
2021/05/29 09:08:35;;;;;;;3.35;1.30;;;;;;;11.72;40.00;102728.47;5001789;28;20033;-68
2021/05/29 09:11:02;;;;;;;5.25;1.20;;;;;;;12.20;40.47;102737.31;5003636;28;20042;-68
2021/05/29 09:13:29;;;;;;;3.67;1.20;;;;;;;12.55;38.06;102738.44;5002506;28;20037;-68
2021/05/29 09:16:00;;;;;;;1.83;0.80;;;;;;;12.05;39.42;102745.44;5002265;28;20034;-68
2021/05/29 09:18:37;;;;;;;1.92;1.25;;;;;;;12.10;40.03;102732.25;4984742;28;20396;-68
2021/05/29 09:21:24;;;;;;;4.28;1.50;;;;;;;11.70;40.51;102745.97;5002094;28;20041;-68
2021/05/29 09:24:04;;;;;;;2.70;1.30;;;;;;;11.37;41.62;102735.94;5002574;28;20026;-68
2021/05/29 09:26:42;;;;;;;2.85;1.00;;;;;;;12.05;40.00;102740.19;5001269;28;20252;-67
2021/05/29 09:29:30;;;;;;;5.75;1.50;;;;;;;11.70;41.31;102735.47;5002516;28;20127;-68
2021/05/29 09:32:00;;;;;;;3.55;1.58;;;;;;;11.53;41.56;102738.34;4984295;28;20048;-68
2021/05/29 09:34:37;;;;;;;5.93;2.10;;;;;;;11.65;41.13;102736.41;5000045;28;20099;-69
2021/05/29 09:37:32;;;;;;;2.95;1.75;;;;;;;11.51;41.09;102741.00;4985261;28;20405;-68
2021/05/29 09:40:03;;;;;;;3.13;1.30;;;;;;;11.74;40.36;102745.03;4996954;28;20053;-69
2021/05/29 09:42:30;;;;;;;;;;;;;;;11.74;41.49;102740.66;5017403;28;20033;-67
2021/05/29 09:44:56;;;;;;;3.58;1.40;;;;;;;12.03;40.99;102744.59;5000682;28;20387;-67
2021/05/29 09:47:27;;;;;;;2.65;1.20;;;;;;;11.77;40.68;102748.47;5000540;28;20504;-68
2021/05/29 09:49:57;;;;;;;8.82;1.88;;;;;;;12.11;40.12;102742.72;5000702;28;20033;-68
2021/05/29 09:52:34;;;;;;;26.65;3.85;;;;;;;12.22;39.45;102748.66;5000970;28;20045;-69
2021/05/29 09:55:11;;;;;;;24.77;5.05;;;;;;;12.32;39.86;102756.34;5000497;28;20061;-68
2021/05/29 09:57:53;;;;;;;24.55;4.10;;;;;;;12.13;40.27;102751.41;5001683;28;20040;-68
2021/05/29 10:00:20;;;;;;;3.50;2.45;;;;;;;11.98;40.08;102751.69;4992816;28;20152;-68
2021/05/29 10:02:59;;;;;;;5.82;2.13;;;;;;;12.18;40.37;102754.84;5001624;28;20037;-68
2021/05/29 10:05:47;;;;;;;7.68;1.95;;;;;;;12.23;40.21;102758.22;4992743;28;20496;-68
2021/05/29 10:08:15;;;;;;;4.00;1.65;;;;;;;12.02;40.06;102754.22;5002096;28;20096;-69
2021/05/29 10:10:41;;;;;;;4.93;2.03;;;;;;;12.02;40.56;102753.34;5004937;28;20042;-68
2021/05/29 10:13:07;;;;;;;2.22;1.65;;;;;;;12.13;39.20;102761.03;5002953;28;20030;-68
2021/05/29 10:15:32;;;;;;;3.63;1.58;;;;;;;12.13;39.51;102756.66;4983847;28;20056;-68
2021/05/29 10:18:00;;;;;;;2.80;1.20;;;;;;;12.45;38.97;102763.13;5000477;28;20547;-68
2021/05/29 10:20:26;;;;;;;2.53;1.67;;;;;;;12.45;39.47;102763.13;5001022;28;20045;-68
2021/05/29 10:22:52;;;;;;;4.63;1.60;;;;;;;13.08;38.77;102762.78;5000552;28;20030;-68
2021/05/29 10:25:20;;;;;;;2.17;0.80;;;;;;;12.25;38.97;102772.19;4998162;23;20054;-68
2021/05/29 10:27:54;;;;;;;2.15;0.95;;;;;;;12.57;38.38;102765.50;4986942;28;20048;-69
2021/05/29 10:30:21;;;;;;;1.45;0.77;;;;;;;12.73;38.32;102770.50;4964574;28;20042;-68
2021/05/29 10:33:15;;;;;;;2.15;1.20;;;;;;;12.67;38.54;102768.84;4968185;28;20045;-69
2021/05/29 10:35:42;;;;;;;3.58;0.98;;;;;;;13.06;36.84;102767.19;4984131;28;20041;-69
2021/05/29 10:38:10;;;;;;;4.40;1.20;;;;;;;13.01;38.30;102773.47;4985763;28;20054;-69
2021/05/29 10:40:42;;;;;;;2.25;0.82;;;;;;;12.68;38.49;102768.78;4985906;28;20037;-69
2021/05/29 10:43:18;;;;;;;2.15;1.58;;;;;;;12.92;39.08;102763.16;4984437;28;20100;-69
2021/05/29 10:45:50;;;;;;;8.93;2.28;;;;;;;12.57;39.94;102765.50;4985320;28;20050;-68
2021/05/29 10:48:19;;;;;;;5.10;2.00;;;;;;;12.44;39.72;102764.00;4985116;28;20034;-69
2021/05/29 10:53:41;;;;;;;4.47;1.48;;;;;;;12.57;38.91;102760.25;5000148;28;20042;-69
2021/05/29 10:56:16;;;;;;;8.23;1.48;;;;;;;12.42;40.71;102771.00;4984550;28;20037;-68
2021/05/29 10:58:54;;;;;;;3.58;1.48;;;;;;;11.93;40.16;102763.97;4985042;28;20104;-68
2021/05/29 11:01:20;;;;;;;3.95;1.77;;;;;;;13.06;38.84;102761.94;4983915;28;20488;-68
2021/05/29 11:03:46;;;;;;;2.35;1.58;;;;;;;13.83;36.94;102760.31;4982988;28;20065;-69
2021/05/29 11:06:32;;;;;;;3.55;2.25;;;;;;;14.26;37.06;102759.22;4985375;28;20108;-68
2021/05/29 11:09:00;;;;;;;2.28;1.88;;;;;;;14.38;36.25;102757.19;4983564;28;20515;-69
2021/05/29 11:11:38;;;;;;;4.80;2.00;;;;;;;14.61;35.70;102764.47;4984770;28;20638;-68
2021/05/29 11:14:06;;;;;;;2.40;1.35;;;;;;;14.51;35.10;102771.78;4984980;28;20030;-68
2021/05/29 11:16:50;;;;;;;5.25;2.03;;;;;;;14.13;35.89;102763.06;4983658;28;20148;-69
2021/05/29 11:19:25;;;;;;;3.80;2.00;;;;;;;13.42;37.38;102763.84;4983506;28;20049;-70
2021/05/29 11:22:12;;;;;;;2.83;2.30;;;;;;;13.56;37.38;102760.88;4986056;28;20042;-69
2021/05/29 11:24:48;;;;;;;3.97;2.00;;;;;;;13.91;37.13;102766.22;4998589;28;20042;-69
2021/05/29 11:27:21;;;;;;;4.57;1.88;;;;;;;14.38;36.64;102763.31;4984022;28;20038;-68
2021/05/29 11:29:54;;;;;;;4.03;1.50;;;;;;;14.35;37.19;102764.25;4984708;28;20030;-68
2021/05/29 11:32:50;;;;;;;4.47;1.58;;;;;;;14.28;37.01;102765.31;4994519;28;20171;-69
2021/05/29 11:35:21;;;;;;;2.40;1.17;;;;;;;14.16;36.68;102768.25;4983718;28;20045;-68
2021/05/29 11:38:22;;;;;;;3.33;1.13;;;;;;;14.47;35.44;102764.84;4996679;28;20036;-68
2021/05/29 11:40:56;;;;;;;3.90;1.33;;;;;;;14.02;36.47;102765.09;4984622;28;20050;-68
2021/05/29 11:43:49;;;;;;;1.80;1.05;;;;;;;14.44;35.43;102767.59;4983622;28;20115;-69
2021/05/29 11:46:20;;;;;;;3.85;0.90;;;;;;;14.84;35.03;102769.13;4984313;28;20150;-69
2021/05/29 11:48:47;;;;;;;1.80;1.30;;;;;;;15.36;35.30;102763.22;4982364;28;20042;-68